Time;durP1;ratioP1;P1;durP2;ratioP2;P2;SDS_P1;SDS_P2;PMS_P1;PMS_P2;Temp;Humidity;BMP_temperature;BMP_pressure;BME280_temperature;BME280_humidity;BME280_pressure;Samples;Min_cycle;Max_cycle;Signal;HPM_P1;HPM_P2
2022/05/17 00:00:42;;;;;;;8.40;4.60;;;13.10;99.90;;;;;;5109844;28;20423;-59
2022/05/17 00:03:07;;;;;;;9.60;4.20;;;13.10;99.90;;;;;;5107075;28;20546;-59
2022/05/17 00:05:33;;;;;;;6.30;4.07;;;13.10;99.90;;;;;;5108293;28;20193;-61
2022/05/17 00:07:59;;;;;;;9.03;3.60;;;13.10;99.90;;;;;;5106723;28;20173;-60
2022/05/17 00:10:26;;;;;;;7.93;5.00;;;13.00;99.90;;;;;;5104764;28;20434;-59
2022/05/17 00:12:52;;;;;;;6.13;4.53;;;13.00;99.90;;;;;;5104309;28;20708;-59
2022/05/17 00:15:18;;;;;;;7.73;4.30;;;13.00;99.90;;;;;;5101779;28;20495;-59
2022/05/17 00:17:45;;;;;;;4.10;3.60;;;12.90;99.90;;;;;;5102930;28;20435;-59
2022/05/17 00:20:12;;;;;;;7.23;4.30;;;12.90;99.90;;;;;;5107344;27;20441;-59
2022/05/17 00:22:39;;;;;;;5.67;4.13;;;12.90;99.90;;;;;;5104915;28;20450;-59
2022/05/17 00:25:07;;;;;;;6.87;4.60;;;12.90;99.90;;;;;;5100202;28;20541;-59
2022/05/17 00:27:32;;;;;;;6.27;4.30;;;12.90;99.90;;;;;;5101259;28;20947;-59
2022/05/17 00:29:58;;;;;;;6.33;3.87;;;12.80;99.90;;;;;;5105763;28;20415;-60
2022/05/17 00:32:23;;;;;;;7.43;3.90;;;12.80;99.90;;;;;;5101432;28;20541;-60
2022/05/17 00:34:49;;;;;;;6.10;4.60;;;12.80;99.90;;;;;;5101924;28;20173;-59
2022/05/17 00:37:15;;;;;;;7.70;4.00;;;12.70;99.90;;;;;;5103296;27;20664;-59
2022/05/17 00:39:41;;;;;;;10.77;4.20;;;12.70;99.90;;;;;;5105743;28;20588;-59
2022/05/17 00:42:07;;;;;;;12.37;4.90;;;12.70;99.90;;;;;;5089119;28;20554;-60
2022/05/17 00:44:42;;;;;;;11.00;5.07;;;12.70;99.90;;;;;;5103473;28;20162;-59
2022/05/17 00:47:21;;;;;;;8.37;4.50;;;12.70;99.90;;;;;;5103729;28;20463;-59
2022/05/17 00:50:07;;;;;;;5.93;4.60;;;12.70;99.90;;;;;;5104071;28;20499;-58
2022/05/17 00:52:56;;;;;;;6.67;4.77;;;12.70;99.90;;;;;;5090114;27;20458;-60
2022/05/17 00:55:28;;;;;;;7.20;4.60;;;12.60;99.90;;;;;;5106523;28;20863;-59
2022/05/17 00:58:09;;;;;;;12.20;4.73;;;12.60;99.90;;;;;;5107172;28;20430;-58
2022/05/17 01:00:39;;;;;;;7.43;4.43;;;12.60;99.90;;;;;;5108353;28;20423;-59
2022/05/17 01:03:08;;;;;;;5.37;4.13;;;12.60;99.90;;;;;;5107488;27;20449;-59
2022/05/17 01:05:39;;;;;;;6.00;4.13;;;12.50;99.90;;;;;;5107276;28;20480;-60
2022/05/17 01:08:07;;;;;;;7.10;4.80;;;12.50;99.90;;;;;;5089662;28;20819;-59
2022/05/17 01:10:33;;;;;;;7.53;4.40;;;12.50;99.90;;;;;;5100610;28;20450;-59
2022/05/17 01:15:45;;;;;;;11.10;4.30;;;12.40;99.90;;;;;;5103510;28;20338;-59
2022/05/17 01:18:11;;;;;;;7.70;4.13;;;12.40;99.90;;;;;;5104681;28;20423;-60
2022/05/17 01:20:37;;;;;;;9.37;4.60;;;12.30;99.90;;;;;;5107293;28;20427;-59
2022/05/17 01:23:03;;;;;;;6.20;4.10;;;12.30;99.90;;;;;;5104645;28;20503;-59
2022/05/17 01:25:29;;;;;;;7.70;4.47;;;12.20;99.90;;;;;;5105020;28;20462;-59
2022/05/17 01:28:05;;;;;;;5.10;3.90;;;12.20;99.90;;;;;;5106974;28;20505;-57
2022/05/17 01:30:31;;;;;;;10.23;5.33;;;12.20;99.90;;;;;;5104566;28;20517;-59
2022/05/17 01:32:57;;;;;;;6.60;4.20;;;12.10;99.90;;;;;;5098201;28;20451;-59
2022/05/17 01:35:23;;;;;;;11.17;4.90;;;12.10;99.90;;;;;;5100127;28;21182;-60
2022/05/17 01:37:55;;;;;;;11.43;4.87;;;12.10;99.90;;;;;;5105849;27;20175;-58
2022/05/17 01:40:22;;;;;;;9.00;4.80;;;12.10;99.90;;;;;;5102856;28;20943;-60
2022/05/17 01:42:48;;;;;;;6.50;5.07;;;12.00;99.90;;;;;;5098636;28;20454;-60
2022/05/17 01:45:14;;;;;;;7.00;4.37;;;12.00;99.90;;;;;;5100024;28;20516;-59
2022/05/17 01:47:40;;;;;;;6.20;3.90;;;12.10;99.90;;;;;;5098241;28;20717;-61
2022/05/17 01:50:06;;;;;;;6.73;4.23;;;12.00;99.90;;;;;;5100149;28;20662;-59
2022/05/17 01:52:32;;;;;;;10.80;4.60;;;12.10;99.90;;;;;;5097967;28;20189;-59
2022/05/17 01:54:58;;;;;;;8.83;4.40;;;12.10;99.90;;;;;;5101102;28;20522;-62
2022/05/17 01:57:24;;;;;;;5.70;4.07;;;12.10;99.90;;;;;;5096298;28;20873;-59
2022/05/17 01:59:50;;;;;;;6.70;4.30;;;12.10;99.90;;;;;;5095655;28;20429;-60
2022/05/17 02:02:15;;;;;;;5.57;3.90;;;12.10;99.90;;;;;;5097475;28;20250;-59
2022/05/17 02:04:42;;;;;;;9.60;4.90;;;12.10;99.90;;;;;;5096191;28;20189;-59
2022/05/17 02:07:08;;;;;;;5.67;4.30;;;12.20;99.90;;;;;;5096455;28;20242;-60
2022/05/17 02:09:34;;;;;;;5.67;3.83;;;12.20;99.90;;;;;;5098274;28;20855;-60
2022/05/17 02:12:00;;;;;;;6.70;4.27;;;12.20;99.90;;;;;;5099051;28;20442;-58
2022/05/17 02:14:25;;;;;;;6.40;4.50;;;12.20;99.90;;;;;;5096043;28;20177;-59
2022/05/17 02:16:51;;;;;;;4.90;4.27;;;12.20;99.90;;;;;;5097744;28;20434;-59
2022/05/17 02:19:19;;;;;;;9.83;4.80;;;12.20;99.90;;;;;;5097162;28;20604;-59
2022/05/17 02:21:46;;;;;;;7.43;4.83;;;12.20;99.90;;;;;;5098028;28;20765;-59
2022/05/17 02:24:13;;;;;;;6.43;4.17;;;12.20;99.90;;;;;;5105257;28;20433;-59
2022/05/17 02:26:39;;;;;;;7.33;4.40;;;12.20;99.90;;;;;;5108215;28;21196;-60
2022/05/17 02:29:04;;;;;;;5.67;4.27;;;12.20;99.90;;;;;;5101799;28;20422;-58
2022/05/17 02:31:30;;;;;;;7.73;4.23;;;12.20;99.90;;;;;;5107152;28;20189;-58
2022/05/17 02:33:56;;;;;;;6.87;4.37;;;12.20;99.90;;;;;;5098022;28;20189;-58
2022/05/17 02:36:22;;;;;;;6.67;4.13;;;12.20;99.90;;;;;;5097511;28;20964;-58
2022/05/17 02:38:48;;;;;;;11.60;4.50;;;12.10;99.90;;;;;;5100738;28;20169;-58
2022/05/17 02:41:17;;;;;;;8.13;4.40;;;12.10;99.90;;;;;;5099510;28;20163;-59
2022/05/17 02:43:46;;;;;;;8.90;4.63;;;12.10;99.90;;;;;;5097845;28;20459;-59
2022/05/17 02:46:13;;;;;;;7.73;5.07;;;12.00;99.90;;;;;;5097116;28;20490;-60
2022/05/17 02:48:39;;;;;;;9.30;4.13;;;12.00;99.90;;;;;;5096005;28;21167;-58
2022/05/17 02:51:17;;;;;;;7.43;5.13;;;12.00;99.90;;;;;;5097930;28;20425;-58
2022/05/17 02:53:43;;;;;;;9.20;4.70;;;11.90;99.90;;;;;;5098503;28;20426;-59
2022/05/17 02:56:09;;;;;;;5.93;5.03;;;11.90;99.90;;;;;;5098108;28;20487;-59
2022/05/17 02:58:37;;;;;;;6.13;5.10;;;11.90;99.90;;;;;;5097314;28;20517;-58
2022/05/17 03:01:03;;;;;;;12.33;5.53;;;11.80;99.90;;;;;;5095764;28;20438;-59
2022/05/17 03:03:29;;;;;;;12.20;5.50;;;11.80;99.90;;;;;;5098119;28;20802;-59
2022/05/17 03:05:55;;;;;;;11.80;4.97;;;11.80;99.90;;;;;;5099188;28;20454;-59
2022/05/17 03:08:20;;;;;;;7.10;5.40;;;11.80;99.90;;;;;;5092415;28;20196;-59
2022/05/17 03:10:46;;;;;;;7.67;5.43;;;11.80;99.90;;;;;;5100134;28;20522;-59
2022/05/17 03:13:14;;;;;;;12.73;5.10;;;11.80;99.90;;;;;;5099245;28;20193;-58
2022/05/17 03:15:40;;;;;;;9.37;6.07;;;11.80;99.90;;;;;;5100269;28;20311;-59
2022/05/17 03:18:06;;;;;;;7.70;6.10;;;11.80;99.90;;;;;;5105622;27;20494;-61
2022/05/17 03:20:32;;;;;;;11.20;6.50;;;11.80;99.90;;;;;;5100236;28;20926;-59
2022/05/17 03:22:57;;;;;;;10.57;6.57;;;11.80;99.90;;;;;;5100803;28;20204;-58
2022/05/17 03:25:23;;;;;;;9.20;6.20;;;11.80;99.90;;;;;;5103399;28;20208;-60
2022/05/17 03:27:53;;;;;;;9.07;5.83;;;11.80;99.90;;;;;;5100222;27;20174;-58
2022/05/17 03:30:19;;;;;;;10.10;5.53;;;11.80;99.90;;;;;;5101436;28;20225;-59
2022/05/17 03:32:44;;;;;;;9.50;6.23;;;11.80;99.90;;;;;;5098047;28;20459;-58
2022/05/17 03:35:10;;;;;;;9.87;5.33;;;11.80;99.90;;;;;;5099707;28;20173;-58
2022/05/17 03:37:36;;;;;;;6.40;5.27;;;11.80;99.90;;;;;;5101613;28;20269;-59
2022/05/17 03:40:04;;;;;;;8.77;5.97;;;11.80;99.90;;;;;;5109766;27;20517;-59
2022/05/17 03:42:30;;;;;;;9.60;5.30;;;11.70;99.90;;;;;;5098546;28;20939;-59
2022/05/17 03:44:55;;;;;;;9.47;5.70;;;11.60;99.90;;;;;;5098613;28;21100;-57
2022/05/17 03:47:21;;;;;;;7.70;5.33;;;11.60;99.90;;;;;;5103872;27;20449;-59
2022/05/17 03:49:47;;;;;;;7.07;5.50;;;11.60;99.90;;;;;;5101512;27;20270;-59
2022/05/17 03:52:13;;;;;;;5.40;4.53;;;11.50;99.90;;;;;;5103363;27;20811;-54
2022/05/17 03:54:39;;;;;;;8.60;5.00;;;11.50;99.90;;;;;;5098519;27;20230;-57
2022/05/17 03:57:06;;;;;;;9.63;5.60;;;11.50;99.90;;;;;;5099487;27;20463;-57
2022/05/17 03:59:31;;;;;;;10.70;5.20;;;11.50;99.90;;;;;;5098302;27;20426;-57
2022/05/17 04:01:57;;;;;;;7.17;4.97;;;11.50;99.90;;;;;;5096316;28;20985;-58
2022/05/17 04:04:23;;;;;;;8.77;5.70;;;11.40;99.90;;;;;;5096464;28;20201;-58
2022/05/17 04:06:49;;;;;;;8.93;4.93;;;11.50;99.90;;;;;;5080845;28;20457;-61
2022/05/17 04:09:15;;;;;;;9.67;5.13;;;11.50;99.90;;;;;;5098410;27;20423;-58
2022/05/17 04:11:41;;;;;;;9.33;5.60;;;11.50;99.90;;;;;;5099608;27;20189;-61
2022/05/17 04:14:07;;;;;;;8.00;5.43;;;11.50;99.90;;;;;;5097320;28;20438;-58
2022/05/17 04:16:38;;;;;;;11.03;6.63;;;11.50;99.90;;;;;;5092687;28;20181;-60
2022/05/17 04:19:05;;;;;;;11.33;6.77;;;11.50;99.90;;;;;;5095717;27;20185;-61
2022/05/17 04:21:32;;;;;;;8.40;6.53;;;11.50;99.90;;;;;;5099259;28;20470;-58
2022/05/17 04:23:57;;;;;;;8.27;5.77;;;11.50;99.90;;;;;;5099538;28;20469;-58
2022/05/17 04:26:24;;;;;;;12.33;6.30;;;11.50;99.90;;;;;;5109563;27;21158;-59
2022/05/17 04:28:50;;;;;;;9.53;5.83;;;11.60;99.90;;;;;;5104893;27;20584;-59
2022/05/17 04:31:16;;;;;;;12.50;5.60;;;11.60;99.90;;;;;;5095960;27;20427;-60
2022/05/17 04:33:42;;;;;;;8.80;5.73;;;11.60;99.90;;;;;;5095287;28;20435;-58
2022/05/17 04:36:10;;;;;;;8.57;5.67;;;11.70;99.90;;;;;;5090936;27;20173;-59
2022/05/17 04:38:36;;;;;;;11.77;6.10;;;11.70;99.90;;;;;;5096745;27;20950;-59
2022/05/17 04:41:02;;;;;;;11.03;5.70;;;11.80;99.90;;;;;;5098960;27;20429;-57
2022/05/17 04:43:29;;;;;;;9.47;6.10;;;11.90;99.90;;;;;;5096637;27;20437;-58
2022/05/17 04:45:55;;;;;;;11.73;5.80;;;11.90;99.90;;;;;;5102470;27;20189;-59
2022/05/17 04:48:24;;;;;;;10.13;7.00;;;12.00;99.90;;;;;;5094719;28;20441;-58
2022/05/17 04:50:52;;;;;;;9.03;5.40;;;12.00;99.90;;;;;;5079655;28;20530;-59
2022/05/17 04:53:19;;;;;;;9.80;5.50;;;12.00;99.90;;;;;;5106862;28;21022;-60
2022/05/17 04:55:44;;;;;;;9.60;5.10;;;12.00;99.90;;;;;;5098589;28;20429;-58
2022/05/17 04:58:11;;;;;;;7.53;5.53;;;12.10;99.90;;;;;;5107368;28;20439;-59
2022/05/17 05:00:36;;;;;;;10.70;5.60;;;12.10;99.90;;;;;;5105562;28;20675;-60
2022/05/17 05:03:03;;;;;;;11.43;5.00;;;12.20;99.90;;;;;;5104309;28;20462;-60
2022/05/17 05:05:29;;;;;;;6.87;4.60;;;12.20;99.90;;;;;;5100951;27;20205;-59
2022/05/17 05:07:54;;;;;;;10.03;5.57;;;12.20;99.90;;;;;;5109681;28;20449;-59
2022/05/17 05:10:21;;;;;;;7.90;5.07;;;12.30;99.90;;;;;;5101591;28;20654;-58
2022/05/17 05:12:47;;;;;;;10.43;7.20;;;12.30;99.90;;;;;;5079973;28;20189;-59
2022/05/17 05:15:13;;;;;;;9.50;6.23;;;12.40;99.90;;;;;;5095228;28;20429;-59
2022/05/17 05:17:40;;;;;;;7.87;5.43;;;12.50;99.90;;;;;;5108936;27;20192;-60
2022/05/17 05:20:09;;;;;;;7.10;5.13;;;12.60;99.90;;;;;;5092881;28;20434;-59
2022/05/17 05:22:35;;;;;;;8.20;6.20;;;12.60;99.90;;;;;;5102563;28;20439;-59
2022/05/17 05:25:01;;;;;;;11.77;5.63;;;12.60;99.90;;;;;;5089456;28;20407;-58
2022/05/17 05:27:34;;;;;;;9.17;5.90;;;12.70;99.90;;;;;;5089502;28;20509;-59
2022/05/17 05:30:00;;;;;;;14.70;6.47;;;12.70;99.90;;;;;;5087311;28;20523;-59
2022/05/17 05:32:26;;;;;;;11.47;5.93;;;12.80;99.90;;;;;;5088240;28;20428;-59
2022/05/17 05:34:52;;;;;;;12.67;6.30;;;12.90;99.90;;;;;;5108387;28;20427;-58
2022/05/17 05:37:17;;;;;;;17.43;6.50;;;12.90;99.90;;;;;;5108993;28;20214;-59
2022/05/17 05:39:43;;;;;;;10.67;6.60;;;13.10;99.90;;;;;;5103697;28;20181;-60
2022/05/17 05:42:09;;;;;;;16.93;8.00;;;13.20;99.90;;;;;;5109958;28;20567;-59
2022/05/17 05:44:36;;;;;;;13.60;7.03;;;13.30;99.90;;;;;;5109008;28;20410;-60
2022/05/17 05:47:01;;;;;;;9.90;5.50;;;13.40;99.90;;;;;;5107387;28;20189;-58
2022/05/17 05:49:27;;;;;;;7.60;4.93;;;13.50;99.90;;;;;;5110016;28;20418;-58
2022/05/17 05:51:52;;;;;;;13.27;6.10;;;13.50;99.90;;;;;;5109176;28;20193;-58
2022/05/17 05:54:18;;;;;;;18.00;6.50;;;13.70;99.90;;;;;;5108763;28;20169;-59
2022/05/17 05:56:44;;;;;;;13.23;6.67;;;13.80;99.90;;;;;;5108984;28;20178;-59
2022/05/17 05:59:10;;;;;;;9.30;5.57;;;13.80;99.90;;;;;;5105520;28;20187;-60
2022/05/17 06:01:36;;;;;;;11.13;5.87;;;13.90;99.90;;;;;;5106029;28;20329;-59
2022/05/17 06:04:02;;;;;;;8.20;5.70;;;14.00;99.90;;;;;;5106828;28;20536;-60
2022/05/17 06:06:28;;;;;;;14.00;6.10;;;14.00;99.90;;;;;;5109579;28;20602;-58
2022/05/17 06:08:55;;;;;;;7.87;4.50;;;14.10;99.90;;;;;;5109391;28;20430;-59
2022/05/17 06:11:21;;;;;;;13.83;5.10;;;14.10;99.90;;;;;;5107059;28;20173;-59
2022/05/17 06:13:47;;;;;;;6.70;4.87;;;14.20;99.90;;;;;;5100517;28;20469;-59
2022/05/17 06:16:13;;;;;;;13.07;5.13;;;14.20;99.90;;;;;;5091209;28;20438;-59
2022/05/17 06:18:38;;;;;;;13.00;5.10;;;14.30;99.90;;;;;;5108604;28;20505;-60
2022/05/17 06:21:04;;;;;;;12.03;5.40;;;14.30;99.90;;;;;;5106981;28;20534;-59
2022/05/17 06:23:31;;;;;;;12.30;4.70;;;14.40;99.90;;;;;;5109370;28;20169;-59
2022/05/17 06:25:57;;;;;;;9.73;4.90;;;14.50;99.90;;;;;;5099947;28;20693;-60
2022/05/17 06:28:23;;;;;;;12.57;5.13;;;14.60;99.90;;;;;;5106884;28;20542;-60
2022/05/17 06:30:49;;;;;;;7.80;4.87;;;14.70;99.90;;;;;;5089501;28;20187;-59
2022/05/17 06:33:15;;;;;;;9.43;4.67;;;14.90;99.90;;;;;;5108780;28;20426;-59
2022/05/17 06:35:45;;;;;;;6.67;4.40;;;15.00;99.90;;;;;;5108060;28;21198;-59
2022/05/17 06:38:11;;;;;;;7.13;4.87;;;15.10;99.90;;;;;;5108795;28;20434;-59
2022/05/17 06:40:38;;;;;;;7.30;4.50;;;15.20;99.90;;;;;;5107759;28;20522;-59
2022/05/17 06:43:05;;;;;;;8.80;4.37;;;15.40;99.90;;;;;;5108613;28;20450;-59
2022/05/17 06:45:31;;;;;;;7.17;4.57;;;15.50;99.90;;;;;;5107087;28;20541;-59
2022/05/17 06:47:56;;;;;;;6.83;4.77;;;15.60;99.90;;;;;;5092216;28;20901;-59
2022/05/17 06:50:22;;;;;;;10.93;4.97;;;15.80;99.90;;;;;;5108673;28;20426;-60
2022/05/17 06:52:48;;;;;;;8.10;4.83;;;15.90;99.90;;;;;;5113384;28;20189;-59
2022/05/17 06:55:14;;;;;;;9.17;5.10;;;16.00;99.90;;;;;;5111969;28;20192;-59
2022/05/17 06:57:43;;;;;;;5.27;4.50;;;16.10;99.90;;;;;;5111934;28;20453;-59
2022/05/17 07:00:12;;;;;;;7.60;4.73;;;16.20;99.90;;;;;;5113399;28;20407;-59
2022/05/17 07:02:38;;;;;;;11.47;5.20;;;16.20;99.90;;;;;;5111756;28;20935;-59
2022/05/17 07:05:05;;;;;;;10.70;5.70;;;16.30;99.90;;;;;;5107542;28;20457;-59
2022/05/17 07:07:31;;;;;;;8.00;5.07;;;16.40;99.90;;;;;;5112357;28;20419;-59
2022/05/17 07:15:26;;;;;;;13.47;6.17;;;16.70;99.90;;;;;;5109836;28;20882;-59
2022/05/17 07:17:51;;;;;;;15.33;6.27;;;16.80;99.90;;;;;;5112075;28;20427;-58
2022/05/17 07:20:17;;;;;;;10.17;6.83;;;16.90;99.70;;;;;;5109569;28;20729;-58
2022/05/17 07:22:43;;;;;;;15.23;6.10;;;17.00;99.40;;;;;;5094558;28;20226;-60
2022/05/17 07:25:09;;;;;;;13.80;7.00;;;17.20;99.10;;;;;;5112374;28;20173;-59
2022/05/17 07:27:35;;;;;;;19.93;7.40;;;17.30;98.00;;;;;;5110731;28;20177;-58
2022/05/17 07:30:02;;;;;;;13.73;6.43;;;17.40;97.00;;;;;;5100079;28;20434;-58
2022/05/17 07:32:28;;;;;;;11.63;6.57;;;17.60;95.10;;;;;;5094226;28;20424;-59
2022/05/17 07:34:54;;;;;;;8.63;6.17;;;17.70;95.00;;;;;;5096021;28;20422;-60
2022/05/17 07:37:19;;;;;;;10.37;6.00;;;17.80;95.70;;;;;;5111808;28;20617;-59
2022/05/17 07:39:45;;;;;;;13.30;5.57;;;17.90;92.00;;;;;;5106343;28;20181;-59
2022/05/17 07:42:11;;;;;;;7.13;4.80;;;18.00;89.50;;;;;;5110175;28;20541;-59
2022/05/17 07:44:37;;;;;;;10.93;5.60;;;18.10;86.80;;;;;;5108946;28;20173;-60
2022/05/17 07:47:03;;;;;;;6.40;4.77;;;18.10;85.20;;;;;;5109298;28;20293;-59
2022/05/17 07:49:31;;;;;;;10.43;5.47;;;18.20;84.00;;;;;;5111789;28;20183;-59
2022/05/17 07:51:56;;;;;;;5.13;4.10;;;18.30;78.70;;;;;;5112025;28;20470;-59
2022/05/17 07:54:22;;;;;;;9.03;4.80;;;18.40;78.20;;;;;;5110187;28;20921;-60
2022/05/17 07:56:48;;;;;;;5.73;4.40;;;18.50;76.70;;;;;;5103685;28;20594;-60
2022/05/17 07:59:13;;;;;;;10.20;4.30;;;18.70;76.20;;;;;;5109265;28;20242;-58
2022/05/17 08:01:39;;;;;;;5.33;4.07;;;18.80;71.20;;;;;;5109999;28;20295;-59
2022/05/17 08:04:05;;;;;;;10.33;3.97;;;18.90;69.50;;;;;;5092866;28;20276;-60
2022/05/17 08:06:30;;;;;;;7.63;4.10;;;19.00;68.30;;;;;;5110726;28;20623;-58
2022/05/17 08:08:56;;;;;;;7.17;3.87;;;19.10;67.20;;;;;;5111182;28;20610;-59
2022/05/17 08:11:24;;;;;;;6.37;3.33;;;19.20;65.30;;;;;;5091045;28;20270;-59
2022/05/17 08:13:49;;;;;;;7.60;3.80;;;19.20;63.60;;;;;;5109286;27;20338;-60
2022/05/17 08:16:16;;;;;;;4.50;3.70;;;19.20;63.10;;;;;;5110491;28;20522;-59
2022/05/17 08:18:41;;;;;;;5.63;3.93;;;19.30;64.10;;;;;;5110483;28;20256;-59
2022/05/17 08:21:07;;;;;;;9.00;3.47;;;19.40;64.40;;;;;;5106691;28;20525;-59
2022/05/17 08:23:34;;;;;;;7.10;3.30;;;19.50;63.70;;;;;;5110456;28;20177;-59
2022/05/17 08:28:43;;;;;;;8.23;4.43;;;19.60;64.10;;;;;;5107691;28;20508;-58
2022/05/17 08:31:10;;;;;;;7.57;3.87;;;19.70;64.40;;;;;;5090757;28;20439;-59
2022/05/17 08:33:38;;;;;;;4.53;4.03;;;19.80;64.20;;;;;;5089780;28;20681;-60
2022/05/17 08:36:07;;;;;;;8.13;3.90;;;19.80;63.70;;;;;;5094450;28;20427;-58
2022/05/17 08:38:38;;;;;;;6.90;3.50;;;19.90;63.50;;;;;;5109404;28;20818;-59
2022/05/17 08:41:12;;;;;;;6.63;3.70;;;20.00;62.50;;;;;;5110489;28;20845;-58
2022/05/17 08:43:54;;;;;;;6.47;3.10;;;20.10;60.80;;;;;;5109627;27;20442;-58
2022/05/17 08:46:47;;;;;;;7.37;3.77;;;20.10;59.70;;;;;;5104319;28;20462;-59
2022/05/17 08:49:31;;;;;;;7.60;3.57;;;20.10;60.60;;;;;;5089787;28;20987;-59
2022/05/17 08:52:07;;;;;;;6.43;3.50;;;20.20;60.90;;;;;;5104224;28;21155;-61
2022/05/17 08:54:44;;;;;;;7.23;2.70;;;20.20;60.70;;;;;;5107104;28;20422;-62
2022/05/17 08:57:44;;;;;;;6.23;3.10;;;20.40;59.70;;;;;;5109944;28;20433;-60
2022/05/17 09:00:14;;;;;;;4.50;3.00;;;20.60;59.20;;;;;;5108300;28;20427;-61
2022/05/17 09:02:48;;;;;;;5.63;3.50;;;20.80;58.30;;;;;;5105980;28;20455;-58
2022/05/17 09:05:38;;;;;;;7.80;3.77;;;20.90;57.70;;;;;;5106170;28;20426;-58
2022/05/17 09:08:07;;;;;;;3.07;2.77;;;20.90;57.80;;;;;;5110135;28;20406;-59
2022/05/17 09:10:49;;;;;;;3.80;3.10;;;20.70;56.30;;;;;;5109556;28;20426;-58
2022/05/17 09:13:23;;;;;;;5.33;3.23;;;20.50;56.80;;;;;;5107697;28;20837;-58
2022/05/17 09:15:51;;;;;;;6.20;3.20;;;20.40;57.60;;;;;;5100072;28;20489;-58
2022/05/17 09:18:18;;;;;;;4.07;3.20;;;20.20;58.40;;;;;;5108726;28;20419;-59
2022/05/17 09:20:45;;;;;;;14.40;3.33;;;20.20;59.40;;;;;;5107657;28;20438;-60
2022/05/17 09:23:11;;;;;;;5.50;3.80;;;20.10;59.60;;;;;;5109203;28;20473;-59
2022/05/17 09:26:07;;;;;;;6.30;3.80;;;20.20;60.20;;;;;;5109580;28;20455;-58
2022/05/17 09:28:49;;;;;;;5.77;3.53;;;20.50;60.90;;;;;;5096717;28;20440;-60
2022/05/17 09:31:24;;;;;;;5.87;3.90;;;20.90;61.00;;;;;;5089634;28;20494;-59
2022/05/17 09:33:50;;;;;;;4.60;3.43;;;21.30;60.50;;;;;;5088447;28;20414;-59
2022/05/17 09:36:22;;;;;;;4.43;3.30;;;21.60;59.30;;;;;;5102369;28;20431;-59
2022/05/17 09:38:51;;;;;;;5.00;3.90;;;21.90;57.80;;;;;;5105799;28;20787;-59
2022/05/17 09:41:21;;;;;;;6.17;3.83;;;22.10;56.70;;;;;;5109801;28;20927;-59
2022/05/17 09:44:23;;;;;;;7.10;3.17;;;22.40;56.70;;;;;;5107550;28;20430;-60
2022/05/17 09:46:50;;;;;;;6.17;3.20;;;22.60;56.50;;;;;;5086440;28;20465;-60
2022/05/17 09:55:08;;;;;;;7.83;3.10;;;22.50;54.50;;;;;;5106314;28;20433;-61
2022/05/17 09:57:35;;;;;;;4.03;2.50;;;22.30;54.70;;;;;;5107203;28;20431;-59
2022/05/17 10:00:12;;;;;;;4.83;3.37;;;22.20;55.20;;;;;;5102182;28;20431;-58
2022/05/17 10:02:49;;;;;;;8.10;3.27;;;22.10;54.80;;;;;;5107485;28;20430;-59
2022/05/17 10:05:48;;;;;;;4.53;2.80;;;22.20;54.90;;;;;;5107433;28;20433;-59
2022/05/17 10:08:14;;;;;;;4.00;3.30;;;22.20;55.60;;;;;;5053963;28;20411;-59
2022/05/17 10:10:45;;;;;;;3.33;3.00;;;22.20;54.50;;;;;;5090404;28;20460;-59
2022/05/17 10:13:24;;;;;;;5.43;3.20;;;22.10;54.00;;;;;;5103423;28;20193;-60
2022/05/17 10:16:06;;;;;;;11.07;3.27;;;21.90;54.10;;;;;;5104938;28;20734;-60
2022/05/17 10:18:49;;;;;;;5.53;2.73;;;21.80;54.00;;;;;;5108636;28;20441;-59
2022/05/17 10:21:25;;;;;;;3.93;3.07;;;21.70;53.90;;;;;;5104868;28;20836;-59
2022/05/17 10:24:14;;;;;;;15.07;3.60;;;21.60;53.00;;;;;;5099800;28;20460;-59
2022/05/17 10:26:46;;;;;;;7.70;3.00;;;21.50;52.50;;;;;;5107574;28;20494;-59
2022/05/17 10:29:40;;;;;;;8.53;2.57;;;21.40;52.80;;;;;;5105476;28;20434;-59
2022/05/17 10:32:35;;;;;;;7.93;3.20;;;21.60;54.20;;;;;;5088056;28;20506;-58
2022/05/17 10:35:20;;;;;;;6.90;3.77;;;21.70;54.20;;;;;;5095490;28;20958;-59
2022/05/17 10:37:49;;;;;;;7.97;3.20;;;21.90;54.50;;;;;;5093081;28;20937;-58
2022/05/17 10:40:24;;;;;;;5.43;3.10;;;21.90;52.90;;;;;;5102313;28;20427;-58
2022/05/17 10:42:50;;;;;;;4.50;2.80;;;21.90;53.50;;;;;;5106099;28;20446;-59
2022/05/17 10:45:35;;;;;;;10.33;2.60;;;21.90;54.00;;;;;;5098316;28;20491;-58
2022/05/17 10:48:28;;;;;;;4.57;2.83;;;21.90;53.20;;;;;;5103103;28;20521;-59
2022/05/17 10:51:13;;;;;;;5.00;3.23;;;22.00;52.90;;;;;;5104117;28;20438;-57
2022/05/17 10:53:54;;;;;;;4.03;2.60;;;22.00;52.70;;;;;;5103209;28;20479;-59
2022/05/17 10:56:41;;;;;;;8.13;3.50;;;22.00;53.20;;;;;;5093490;28;20427;-58
2022/05/17 10:59:28;;;;;;;4.67;2.60;;;22.20;52.90;;;;;;5094945;28;20489;-61
2022/05/17 11:02:15;;;;;;;3.60;3.07;;;22.50;53.10;;;;;;5097390;28;20454;-59
2022/05/17 11:05:18;;;;;;;5.80;3.20;;;22.70;52.90;;;;;;5101496;28;20439;-59
2022/05/17 11:08:20;;;;;;;3.57;2.73;;;22.80;53.20;;;;;;5074550;28;20434;-61
2022/05/17 11:10:57;;;;;;;3.13;2.83;;;23.10;52.60;;;;;;5103519;28;20461;-59
2022/05/17 11:13:31;;;;;;;4.70;3.17;;;23.10;52.70;;;;;;5103218;28;20969;-60
2022/05/17 11:16:36;;;;;;;16.30;7.57;;;23.00;53.00;;;;;;5099177;28;20431;-59
2022/05/17 11:19:29;;;;;;;7.63;3.37;;;22.90;54.00;;;;;;5101637;28;20426;-59
2022/05/17 11:22:17;;;;;;;4.77;3.77;;;22.90;54.50;;;;;;5095362;28;20494;-58
2022/05/17 11:25:07;;;;;;;6.70;2.67;;;23.20;55.20;;;;;;5097451;28;20442;-59
2022/05/17 11:27:53;;;;;;;4.93;3.40;;;23.60;54.80;;;;;;5101236;28;20426;-59
2022/05/17 11:30:19;;;;;;;4.20;2.77;;;23.90;53.70;;;;;;5096772;28;20449;-61
2022/05/17 11:33:21;;;;;;;6.60;2.90;;;24.30;54.30;;;;;;5098988;28;20451;-60
2022/05/17 11:35:52;;;;;;;4.67;2.80;;;24.60;51.90;;;;;;5106761;28;20248;-59
2022/05/17 11:38:32;;;;;;;9.10;3.20;;;24.70;51.20;;;;;;5105985;28;20483;-59
2022/05/17 11:41:33;;;;;;;4.63;2.93;;;24.80;50.80;;;;;;5103187;28;20430;-61
2022/05/17 11:44:20;;;;;;;4.80;2.97;;;25.00;50.20;;;;;;5103527;28;20522;-59
2022/05/17 11:46:58;;;;;;;5.93;2.93;;;25.20;49.30;;;;;;5072427;28;20488;-60
2022/05/17 11:49:30;;;;;;;6.90;2.90;;;25.40;46.60;;;;;;5105446;28;20423;-61
2022/05/17 11:51:59;;;;;;;3.77;2.90;;;25.50;46.80;;;;;;5105614;28;20446;-60
2022/05/17 11:54:42;;;;;;;4.33;2.50;;;25.60;47.20;;;;;;5103470;27;20507;-61
2022/05/17 11:57:10;;;;;;;2.63;2.37;;;25.80;46.00;;;;;;5104755;28;20422;-59
2022/05/17 11:59:35;;;;;;;4.20;2.27;;;25.80;45.60;;;;;;5098650;28;20785;-58
2022/05/17 12:02:11;;;;;;;7.13;3.13;;;25.90;45.50;;;;;;5103113;27;20453;-58
2022/05/17 12:04:45;;;;;;;4.93;3.10;;;26.10;46.10;;;;;;5102894;27;20252;-58
2022/05/17 12:07:26;;;;;;;10.83;3.10;;;26.20;46.10;;;;;;5095082;28;20520;-58
2022/05/17 12:09:55;;;;;;;3.70;2.87;;;26.40;46.50;;;;;;5101879;27;20458;-57
2022/05/17 12:12:39;;;;;;;5.23;3.27;;;26.60;45.40;;;;;;5102537;27;20447;-58
2022/05/17 12:15:17;;;;;;;6.60;3.03;;;26.80;46.80;;;;;;5099642;27;20476;-60
2022/05/17 12:17:48;;;;;;;5.00;3.30;;;27.00;47.50;;;;;;5102002;28;20419;-60
2022/05/17 12:20:17;;;;;;;7.17;2.80;;;27.10;48.20;;;;;;5094062;28;20439;-56
2022/05/17 12:23:05;;;;;;;7.10;2.83;;;27.10;47.00;;;;;;5100235;28;20460;-59
2022/05/17 12:26:15;;;;;;;4.20;2.47;;;27.10;47.00;;;;;;5084721;28;20458;-59
2022/05/17 12:28:49;;;;;;;7.33;3.57;;;26.70;46.20;;;;;;5048158;28;20429;-59
2022/05/17 12:31:26;;;;;;;7.73;3.40;;;26.10;46.40;;;;;;5100869;28;21256;-58
2022/05/17 12:33:54;;;;;;;6.83;2.93;;;25.50;47.60;;;;;;5103069;27;20515;-59
2022/05/17 12:36:24;;;;;;;9.17;3.30;;;25.00;48.40;;;;;;5102781;28;20473;-59
2022/05/17 12:44:56;;;;;;;7.20;3.13;;;24.30;49.90;;;;;;5094092;28;20929;-60
2022/05/17 12:47:44;;;;;;;4.00;3.13;;;24.10;49.70;;;;;;5102466;28;20466;-59
2022/05/17 12:50:40;;;;;;;7.63;3.57;;;24.20;49.70;;;;;;5104064;27;20473;-58
2022/05/17 12:53:16;;;;;;;3.47;2.70;;;24.60;49.10;;;;;;5098594;28;20439;-59
2022/05/17 12:56:03;;;;;;;4.20;3.13;;;24.80;48.90;;;;;;5075292;28;20445;-61
2022/05/17 12:58:29;;;;;;;6.77;3.23;;;25.30;49.70;;;;;;5083774;28;21078;-59
2022/05/17 13:00:56;;;;;;;5.70;2.77;;;25.70;48.30;;;;;;5100205;28;20433;-59
2022/05/17 13:03:27;;;;;;;7.40;2.97;;;26.20;47.20;;;;;;5099180;28;20813;-60
2022/05/17 13:05:58;;;;;;;3.87;3.00;;;26.60;47.10;;;;;;5104215;27;20506;-59
2022/05/17 13:08:29;;;;;;;4.53;2.87;;;27.00;45.80;;;;;;5103092;27;20430;-60
2022/05/17 13:11:04;;;;;;;8.77;2.90;;;27.00;44.80;;;;;;5103375;27;20462;-60
2022/05/17 13:13:31;;;;;;;5.07;2.80;;;26.60;45.60;;;;;;5105090;28;20533;-59
2022/05/17 13:16:12;;;;;;;7.37;2.90;;;26.20;45.50;;;;;;5103449;28;20430;-59
2022/05/17 13:19:00;;;;;;;4.83;3.10;;;25.70;45.60;;;;;;5097075;27;20445;-60
2022/05/17 13:21:37;;;;;;;5.17;2.97;;;25.30;46.70;;;;;;5102056;28;20446;-59
2022/05/17 13:24:06;;;;;;;3.50;3.20;;;25.00;46.80;;;;;;5097099;27;20465;-60
2022/05/17 13:26:37;;;;;;;3.53;2.50;;;24.80;47.30;;;;;;5103494;27;21165;-61